F/V Cote D'ambre — FPEY — position and weather

sailwx.info

Track history (hours):
 
Tides and Currents Weather Stations Pressure Air Temp Water Temp Dewpoint Dewpoint Depression Visibility Wind Speed Wind Dir Waves Ship Positions

F/V Cote D'ambre

Last reported at 2017-Jan-13 00:27 UTC. Time now 2017-Jan-17 00:52 UTC.
Position N 47°44' W 003°22'.

Length 16 m; draft 4 m.

Type: Fishing. MMSI: 227128800.

Date/timePositionNaut miles runAvg speedWind from/ knotsBaromVisibWave heightAir tempDewpointWater temp
2017-Jan-13 00:27N 47°44' W 003°22'0 0.0
2017-Jan-12 23:33N 47°44' W 003°22'1 0.6
2017-Jan-12 22:33N 47°43' W 003°22'6 6.0
2017-Jan-12 21:33N 47°37' W 003°19'6 6.0
2017-Jan-12 20:33N 47°32' W 003°15'6 5.8
2017-Jan-12 19:33N 47°28' W 003°10'6 5.9
2017-Jan-12 18:33N 47°23' W 003°05'5 5.3
2017-Jan-12 17:33N 47°18' W 003°02'7 6.9
2017-Jan-12 16:33N 47°11' W 003°05'7 7.2
2017-Jan-12 15:33N 47°05' W 003°09'4 4.1
2017-Jan-12 14:30N 47°01' W 003°12'2 0.4
2017-Jan-12 09:30N 46°60' W 003°15'3 3.3
2017-Jan-12 08:30N 47°03' W 003°16'7 7.1
2017-Jan-12 07:33N 47°10' W 003°17'8 8.2
2017-Jan-12 06:33N 47°18' W 003°19'9 8.6
2017-Jan-12 05:33N 47°26' W 003°20'9 8.6
2017-Jan-12 04:33N 47°35' W 003°21'9 8.6
2017-Jan-12 03:31N 47°44' W 003°22'0 0.1
2017-Jan-12 02:33N 47°44' W 003°22'0 0.2
2017-Jan-12 01:31N 47°44' W 003°22'3 3.2
2017-Jan-12 00:33N 47°41' W 003°22'8 8.4
2017-Jan-11 23:33N 47°32' W 003°20'8 8.5
2017-Jan-11 22:33N 47°24' W 003°19'9 8.6
2017-Jan-11 21:33N 47°16' W 003°17'8 8.1
2017-Jan-11 20:33N 47°08' W 003°14'4 4.3
2017-Jan-11 19:33N 47°03' W 003°13'3 3.0
2017-Jan-11 18:33N 47°00' W 003°13'3 2.9
2017-Jan-11 17:33N 46°58' W 003°14'4 0.1
2017-Jan-10 08:30N 47°02' W 003°16'6 6.0
2017-Jan-10 07:33N 47°08' W 003°17'8 8.0
2017-Jan-10 06:33N 47°16' W 003°18'8 8.0
2017-Jan-10 05:33N 47°23' W 003°20'8 8.2
2017-Jan-10 04:33N 47°32' W 003°21'8 8.3
2017-Jan-10 03:33N 47°40' W 003°22'4 0.2
2017-Jan-09 01:25N 47°44' W 003°22'0 0.0
2017-Jan-09 00:31N 47°44' W 003°22'0 0.0
2017-Jan-08 23:31N 47°44' W 003°22'7 7.2
2017-Jan-08 22:33N 47°37' W 003°23'9 8.8
2017-Jan-08 21:33N 47°28' W 003°21'9 8.9
2017-Jan-08 20:33N 47°19' W 003°20'9 9.0
2017-Jan-08 19:33N 47°10' W 003°18'9 8.8
2017-Jan-08 18:33N 47°02' W 003°16'5 0.4
2017-Jan-08 05:19N 46°57' W 003°19'4 3.5
2017-Jan-08 04:15N 46°53' W 003°17'6 2.2
2017-Jan-08 01:28N 46°52' W 003°26'3 2.9
2017-Jan-08 00:30N 46°53' W 003°22'2 2.2
2017-Jan-07 23:30N 46°54' W 003°19'1 1.2
2017-Jan-07 22:33N 46°54' W 003°17'4 3.4
2017-Jan-07 21:23N 46°53' W 003°12'1 1.1
2017-Jan-07 20:33N 46°53' W 003°13'3 3.2
2017-Jan-07 19:33N 46°52' W 003°18'4 3.4
2017-Jan-07 18:30N 46°49' W 003°15'2 1.7
2017-Jan-07 17:33N 46°50' W 003°13'3 3.1
2017-Jan-07 16:28N 46°51' W 003°17'4 3.2
2017-Jan-07 15:20N 46°54' W 003°17'4 3.7
2017-Jan-07 14:21N 46°58' W 003°19'2 2.4
2017-Jan-07 13:33N 46°59' W 003°21'4 3.2
2017-Jan-07 12:24N 47°01' W 003°25'3 3.5
2017-Jan-07 11:28N 47°03' W 003°29'3 3.2
2017-Jan-07 10:25N 47°06' W 003°31'3 3.4
2017-Jan-07 09:27N 47°09' W 003°34'3 3.4
2017-Jan-07 08:33N 47°12' W 003°35'3 3.3
2017-Jan-07 07:30N 47°15' W 003°36'6 6.6
2017-Jan-07 06:32N 47°21' W 003°32'8 8.5
2017-Jan-07 05:33N 47°29' W 003°27'8 8.3
2017-Jan-07 04:34N 47°36' W 003°22'7 7.1
2017-Jan-07 03:31N 47°44' W 003°22'0 0.0
2017-Jan-07 02:28N 47°44' W 003°22'3 3.4
2017-Jan-07 01:33N 47°41' W 003°22'8 8.3
2017-Jan-07 00:33N 47°33' W 003°26'8 8.4
2017-Jan-06 23:33N 47°25' W 003°31'6 6.2
2017-Jan-06 22:33N 47°20' W 003°36'4 3.3
2017-Jan-06 21:23N 47°16' W 003°35'3 3.4
2017-Jan-06 20:25N 47°12' W 003°34'7 1.9
2017-Jan-06 16:28N 47°10' W 003°24'2 2.5
2017-Jan-06 15:30N 47°12' W 003°25'2 2.6
2017-Jan-06 14:33N 47°10' W 003°24'4 0.8
2017-Jan-06 09:33N 47°06' W 003°23'3 3.4
2017-Jan-06 08:33N 47°09' W 003°24'4 4.1
2017-Jan-06 07:33N 47°13' W 003°22'8 7.8
2017-Jan-06 06:33N 47°21' W 003°22'8 7.7
2017-Jan-06 05:33N 47°28' W 003°22'8 7.8
2017-Jan-06 04:34N 47°36' W 003°22'7 7.2
2017-Jan-06 03:32N 47°44' W 003°22'0 0.2
2017-Jan-06 02:31N 47°44' W 003°22'3 2.9
2017-Jan-06 01:33N 47°41' W 003°22'8 8.1
2017-Jan-06 00:33N 47°33' W 003°26'8 8.1
2017-Jan-05 23:33N 47°26' W 003°31'8 7.7
2017-Jan-05 22:33N 47°19' W 003°36'3 2.9
2017-Jan-05 21:33N 47°17' W 003°38'4 0.4
2017-Jan-05 11:33N 47°14' W 003°34'3 2.5
2017-Jan-05 10:23N 47°16' W 003°32'2 2.6
2017-Jan-05 09:33N 47°16' W 003°35'2 2.0
2017-Jan-05 08:32N 47°16' W 003°32'5 0.6
2017-Jan-05 00:20N 47°11' W 003°33'1 1.1
2017-Jan-04 23:31N 47°12' W 003°34'3 3.3
2017-Jan-04 22:33N 47°13' W 003°38'4 3.5
2017-Jan-04 21:22N 47°12' W 003°44'1 0.3
2017-Jan-04 18:26N 47°12' W 003°46'6 3.2
2017-Jan-04 16:30N 47°13' W 003°37'1 1.3
2017-Jan-04 15:24N 47°14' W 003°35'3 3.0
2017-Jan-04 14:31N 47°16' W 003°33'1 1.3
2017-Jan-04 13:32N 47°15' W 003°34'2 2.3
2017-Jan-04 12:32N 47°13' W 003°31'2 2.0
2017-Jan-04 11:29N 47°11' W 003°30'3 3.3
2017-Jan-04 10:33N 47°14' W 003°33'2 1.8
2017-Jan-04 09:33N 47°15' W 003°33'3 2.9
2017-Jan-04 08:34N 47°18' W 003°35'8 8.1
2017-Jan-04 07:33N 47°25' W 003°29'8 8.1
2017-Jan-04 06:33N 47°32' W 003°24'8 8.0
2017-Jan-04 05:34N 47°40' W 003°22'  
Track history (hours):
 
Tides and Currents Weather Stations Pressure Air Temp Water Temp Dewpoint Dewpoint Depression Visibility Wind Speed Wind Dir Waves Ship Positions

F/V Cote D'ambre

Last reported at 2017-Jan-13 00:27 UTC. Time now 2017-Jan-17 00:52 UTC.
Position N 47°44' W 003°22'.

Length 16 m; draft 4 m.

Type: Fishing. MMSI: 227128800.

Date/timePositionNaut miles runAvg speedWind from/ knotsBaromVisibWave heightAir tempDewpointWater temp
2017-Jan-13 00:27N 47°44' W 003°22'0 0.0
2017-Jan-12 23:33N 47°44' W 003°22'1 0.6
2017-Jan-12 22:33N 47°43' W 003°22'6 6.0
2017-Jan-12 21:33N 47°37' W 003°19'6 6.0
2017-Jan-12 20:33N 47°32' W 003°15'6 5.8
2017-Jan-12 19:33N 47°28' W 003°10'6 5.9
2017-Jan-12 18:33N 47°23' W 003°05'5 5.3
2017-Jan-12 17:33N 47°18' W 003°02'7 6.9
2017-Jan-12 16:33N 47°11' W 003°05'7 7.2
2017-Jan-12 15:33N 47°05' W 003°09'4 4.1
2017-Jan-12 14:30N 47°01' W 003°12'2 0.4
2017-Jan-12 09:30N 46°60' W 003°15'3 3.3
2017-Jan-12 08:30N 47°03' W 003°16'7 7.1
2017-Jan-12 07:33N 47°10' W 003°17'8 8.2
2017-Jan-12 06:33N 47°18' W 003°19'9 8.6
2017-Jan-12 05:33N 47°26' W 003°20'9 8.6
2017-Jan-12 04:33N 47°35' W 003°21'9 8.6
2017-Jan-12 03:31N 47°44' W 003°22'0 0.1
2017-Jan-12 02:33N 47°44' W 003°22'0 0.2
2017-Jan-12 01:31N 47°44' W 003°22'3 3.2
2017-Jan-12 00:33N 47°41' W 003°22'8 8.4
2017-Jan-11 23:33N 47°32' W 003°20'8 8.5
2017-Jan-11 22:33N 47°24' W 003°19'9 8.6
2017-Jan-11 21:33N 47°16' W 003°17'8 8.1
2017-Jan-11 20:33N 47°08' W 003°14'4 4.3
2017-Jan-11 19:33N 47°03' W 003°13'3 3.0
2017-Jan-11 18:33N 47°00' W 003°13'3 2.9
2017-Jan-11 17:33N 46°58' W 003°14'4 0.1
2017-Jan-10 08:30N 47°02' W 003°16'6 6.0
2017-Jan-10 07:33N 47°08' W 003°17'8 8.0
2017-Jan-10 06:33N 47°16' W 003°18'8 8.0
2017-Jan-10 05:33N 47°23' W 003°20'8 8.2
2017-Jan-10 04:33N 47°32' W 003°21'8 8.3
2017-Jan-10 03:33N 47°40' W 003°22'4 0.2
2017-Jan-09 01:25N 47°44' W 003°22'0 0.0
2017-Jan-09 00:31N 47°44' W 003°22'0 0.0
2017-Jan-08 23:31N 47°44' W 003°22'7 7.2
2017-Jan-08 22:33N 47°37' W 003°23'9 8.8
2017-Jan-08 21:33N 47°28' W 003°21'9 8.9
2017-Jan-08 20:33N 47°19' W 003°20'9 9.0
2017-Jan-08 19:33N 47°10' W 003°18'9 8.8
2017-Jan-08 18:33N 47°02' W 003°16'5 0.4
2017-Jan-08 05:19N 46°57' W 003°19'4 3.5
2017-Jan-08 04:15N 46°53' W 003°17'6 2.2
2017-Jan-08 01:28N 46°52' W 003°26'3 2.9
2017-Jan-08 00:30N 46°53' W 003°22'2 2.2
2017-Jan-07 23:30N 46°54' W 003°19'1 1.2
2017-Jan-07 22:33N 46°54' W 003°17'4 3.4
2017-Jan-07 21:23N 46°53' W 003°12'1 1.1
2017-Jan-07 20:33N 46°53' W 003°13'3 3.2
2017-Jan-07 19:33N 46°52' W 003°18'4 3.4
2017-Jan-07 18:30N 46°49' W 003°15'2 1.7
2017-Jan-07 17:33N 46°50' W 003°13'3 3.1
2017-Jan-07 16:28N 46°51' W 003°17'4 3.2
2017-Jan-07 15:20N 46°54' W 003°17'4 3.7
2017-Jan-07 14:21N 46°58' W 003°19'2 2.4
2017-Jan-07 13:33N 46°59' W 003°21'4 3.2
2017-Jan-07 12:24N 47°01' W 003°25'3 3.5
2017-Jan-07 11:28N 47°03' W 003°29'3 3.2
2017-Jan-07 10:25N 47°06' W 003°31'3 3.4
2017-Jan-07 09:27N 47°09' W 003°34'3 3.4
2017-Jan-07 08:33N 47°12' W 003°35'3 3.3
2017-Jan-07 07:30N 47°15' W 003°36'6 6.6
2017-Jan-07 06:32N 47°21' W 003°32'8 8.5
2017-Jan-07 05:33N 47°29' W 003°27'8 8.3
2017-Jan-07 04:34N 47°36' W 003°22'7 7.1
2017-Jan-07 03:31N 47°44' W 003°22'0 0.0
2017-Jan-07 02:28N 47°44' W 003°22'3 3.4
2017-Jan-07 01:33N 47°41' W 003°22'8 8.3
2017-Jan-07 00:33N 47°33' W 003°26'8 8.4
2017-Jan-06 23:33N 47°25' W 003°31'6 6.2
2017-Jan-06 22:33N 47°20' W 003°36'4 3.3
2017-Jan-06 21:23N 47°16' W 003°35'3 3.4
2017-Jan-06 20:25N 47°12' W 003°34'7 1.9
2017-Jan-06 16:28N 47°10' W 003°24'2 2.5
2017-Jan-06 15:30N 47°12' W 003°25'2 2.6
2017-Jan-06 14:33N 47°10' W 003°24'4 0.8
2017-Jan-06 09:33N 47°06' W 003°23'3 3.4
2017-Jan-06 08:33N 47°09' W 003°24'4 4.1
2017-Jan-06 07:33N 47°13' W 003°22'8 7.8
2017-Jan-06 06:33N 47°21' W 003°22'8 7.7
2017-Jan-06 05:33N 47°28' W 003°22'8 7.8
2017-Jan-06 04:34N 47°36' W 003°22'7 7.2
2017-Jan-06 03:32N 47°44' W 003°22'0 0.2
2017-Jan-06 02:31N 47°44' W 003°22'3 2.9
2017-Jan-06 01:33N 47°41' W 003°22'8 8.1
2017-Jan-06 00:33N 47°33' W 003°26'8 8.1
2017-Jan-05 23:33N 47°26' W 003°31'8 7.7
2017-Jan-05 22:33N 47°19' W 003°36'3 2.9
2017-Jan-05 21:33N 47°17' W 003°38'4 0.4
2017-Jan-05 11:33N 47°14' W 003°34'3 2.5
2017-Jan-05 10:23N 47°16' W 003°32'2 2.6
2017-Jan-05 09:33N 47°16' W 003°35'2 2.0
2017-Jan-05 08:32N 47°16' W 003°32'5 0.6
2017-Jan-05 00:20N 47°11' W 003°33'1 1.1
2017-Jan-04 23:31N 47°12' W 003°34'3 3.3
2017-Jan-04 22:33N 47°13' W 003°38'4 3.5
2017-Jan-04 21:22N 47°12' W 003°44'1 0.3
2017-Jan-04 18:26N 47°12' W 003°46'6 3.2
2017-Jan-04 16:30N 47°13' W 003°37'1 1.3
2017-Jan-04 15:24N 47°14' W 003°35'3 3.0
2017-Jan-04 14:31N 47°16' W 003°33'1 1.3
2017-Jan-04 13:32N 47°15' W 003°34'2 2.3
2017-Jan-04 12:32N 47°13' W 003°31'2 2.0
2017-Jan-04 11:29N 47°11' W 003°30'3 3.3
2017-Jan-04 10:33N 47°14' W 003°33'2 1.8
2017-Jan-04 09:33N 47°15' W 003°33'3 2.9
2017-Jan-04 08:34N 47°18' W 003°35'8 8.1
2017-Jan-04 07:33N 47°25' W 003°29'8 8.1
2017-Jan-04 06:33N 47°32' W 003°24'8 8.0
2017-Jan-04 05:34N 47°40' W 003°22'  

Dump ship's entire track history